sensor_id;sensor_type;location;lat;lon;timestamp;temperature;humidity
26964;DHT22;14521;48.148;-1.656;2022-07-26T00:03:04;24.40;78.80
26964;DHT22;14521;48.148;-1.656;2022-07-26T00:06:27;24.40;78.90
26964;DHT22;14521;48.148;-1.656;2022-07-26T00:09:49;24.40;78.70
26964;DHT22;14521;48.148;-1.656;2022-07-26T00:13:12;24.50;78.70
26964;DHT22;14521;48.148;-1.656;2022-07-26T00:16:35;24.50;78.90
26964;DHT22;14521;48.148;-1.656;2022-07-26T00:19:58;24.40;78.90
26964;DHT22;14521;48.148;-1.656;2022-07-26T00:23:20;24.40;78.80
26964;DHT22;14521;48.148;-1.656;2022-07-26T00:26:42;24.50;78.70
26964;DHT22;14521;48.148;-1.656;2022-07-26T00:30:06;24.50;78.70
26964;DHT22;14521;48.148;-1.656;2022-07-26T00:33:29;24.50;78.80
26964;DHT22;14521;48.148;-1.656;2022-07-26T00:36:51;24.40;78.90
26964;DHT22;14521;48.148;-1.656;2022-07-26T00:40:14;24.30;79.10
26964;DHT22;14521;48.148;-1.656;2022-07-26T00:43:37;24.30;79.20
26964;DHT22;14521;48.148;-1.656;2022-07-26T00:47:14;24.20;79.30
26964;DHT22;14521;48.148;-1.656;2022-07-26T00:50:37;24.20;79.30
26964;DHT22;14521;48.148;-1.656;2022-07-26T00:53:59;24.30;79.30
26964;DHT22;14521;48.148;-1.656;2022-07-26T00:57:22;24.30;79.30
26964;DHT22;14521;48.148;-1.656;2022-07-26T01:00:45;24.30;79.20
26964;DHT22;14521;48.148;-1.656;2022-07-26T01:04:07;24.30;79.10
26964;DHT22;14521;48.148;-1.656;2022-07-26T01:07:30;24.20;79.30
26964;DHT22;14521;48.148;-1.656;2022-07-26T01:10:52;24.10;79.40
26964;DHT22;14521;48.148;-1.656;2022-07-26T01:14:19;24.10;79.60
26964;DHT22;14521;48.148;-1.656;2022-07-26T01:17:43;24.20;79.70
26964;DHT22;14521;48.148;-1.656;2022-07-26T01:21:07;24.20;79.50
26964;DHT22;14521;48.148;-1.656;2022-07-26T01:24:35;24.10;79.70
26964;DHT22;14521;48.148;-1.656;2022-07-26T01:27:57;24.00;80.00
26964;DHT22;14521;48.148;-1.656;2022-07-26T01:31:19;24.10;80.00
26964;DHT22;14521;48.148;-1.656;2022-07-26T01:34:42;24.10;79.90
26964;DHT22;14521;48.148;-1.656;2022-07-26T01:38:04;24.10;79.60
26964;DHT22;14521;48.148;-1.656;2022-07-26T01:41:26;24.30;79.30
26964;DHT22;14521;48.148;-1.656;2022-07-26T01:44:59;24.20;79.30
26964;DHT22;14521;48.148;-1.656;2022-07-26T01:48:21;24.50;78.70
26964;DHT22;14521;48.148;-1.656;2022-07-26T01:51:44;24.70;78.10
26964;DHT22;14521;48.148;-1.656;2022-07-26T01:55:06;24.80;77.80
26964;DHT22;14521;48.148;-1.656;2022-07-26T01:58:29;24.90;77.50
26964;DHT22;14521;48.148;-1.656;2022-07-26T02:01:51;24.90;77.30
26964;DHT22;14521;48.148;-1.656;2022-07-26T02:05:13;25.00;77.10
26964;DHT22;14521;48.148;-1.656;2022-07-26T02:08:36;25.00;76.90
26964;DHT22;14521;48.148;-1.656;2022-07-26T02:11:58;25.10;76.90
26964;DHT22;14521;48.148;-1.656;2022-07-26T02:15:20;25.10;76.80
26964;DHT22;14521;48.148;-1.656;2022-07-26T02:18:42;25.20;76.80
26964;DHT22;14521;48.148;-1.656;2022-07-26T02:22:05;25.20;76.70
26964;DHT22;14521;48.148;-1.656;2022-07-26T02:25:27;25.20;76.70
26964;DHT22;14521;48.148;-1.656;2022-07-26T02:28:50;25.10;76.60
26964;DHT22;14521;48.148;-1.656;2022-07-26T02:32:12;25.20;76.70
26964;DHT22;14521;48.148;-1.656;2022-07-26T02:35:35;25.20;76.80
26964;DHT22;14521;48.148;-1.656;2022-07-26T02:38:57;25.20;76.80
26964;DHT22;14521;48.148;-1.656;2022-07-26T02:42:20;25.20;76.70
26964;DHT22;14521;48.148;-1.656;2022-07-26T02:45:42;25.10;76.60
26964;DHT22;14521;48.148;-1.656;2022-07-26T02:49:04;25.20;76.60
26964;DHT22;14521;48.148;-1.656;2022-07-26T02:52:27;25.20;76.90
26964;DHT22;14521;48.148;-1.656;2022-07-26T02:55:49;25.10;76.90
26964;DHT22;14521;48.148;-1.656;2022-07-26T02:59:12;25.20;76.60
26964;DHT22;14521;48.148;-1.656;2022-07-26T03:02:34;25.20;76.60
26964;DHT22;14521;48.148;-1.656;2022-07-26T03:05:56;25.10;76.60
26964;DHT22;14521;48.148;-1.656;2022-07-26T03:09:18;25.20;77.40
26964;DHT22;14521;48.148;-1.656;2022-07-26T03:12:41;25.20;76.60
26964;DHT22;14521;48.148;-1.656;2022-07-26T03:16:03;25.20;76.60
26964;DHT22;14521;48.148;-1.656;2022-07-26T03:19:26;25.20;76.60
26964;DHT22;14521;48.148;-1.656;2022-07-26T03:22:48;25.20;76.60
26964;DHT22;14521;48.148;-1.656;2022-07-26T03:26:10;25.10;76.50
26964;DHT22;14521;48.148;-1.656;2022-07-26T03:29:33;25.20;76.60
26964;DHT22;14521;48.148;-1.656;2022-07-26T03:32:55;25.20;76.60
26964;DHT22;14521;48.148;-1.656;2022-07-26T03:36:17;25.10;76.50
26964;DHT22;14521;48.148;-1.656;2022-07-26T03:39:40;25.20;76.60
26964;DHT22;14521;48.148;-1.656;2022-07-26T03:43:02;25.10;76.70
26964;DHT22;14521;48.148;-1.656;2022-07-26T03:46:24;25.10;76.60
26964;DHT22;14521;48.148;-1.656;2022-07-26T03:49:46;25.10;76.60
26964;DHT22;14521;48.148;-1.656;2022-07-26T03:53:09;25.20;76.70
26964;DHT22;14521;48.148;-1.656;2022-07-26T03:56:31;25.20;76.60
26964;DHT22;14521;48.148;-1.656;2022-07-26T03:59:53;25.10;76.60
26964;DHT22;14521;48.148;-1.656;2022-07-26T04:03:15;25.20;76.60
26964;DHT22;14521;48.148;-1.656;2022-07-26T04:06:38;25.10;76.60
26964;DHT22;14521;48.148;-1.656;2022-07-26T04:10:02;25.10;76.60
26964;DHT22;14521;48.148;-1.656;2022-07-26T04:13:24;25.10;76.60
26964;DHT22;14521;48.148;-1.656;2022-07-26T04:16:46;25.10;76.70
26964;DHT22;14521;48.148;-1.656;2022-07-26T04:20:10;25.10;76.70
26964;DHT22;14521;48.148;-1.656;2022-07-26T04:23:33;25.10;76.90
26964;DHT22;14521;48.148;-1.656;2022-07-26T04:26:55;25.10;76.80
26964;DHT22;14521;48.148;-1.656;2022-07-26T04:30:18;25.10;76.80
26964;DHT22;14521;48.148;-1.656;2022-07-26T04:33:40;25.10;76.60
26964;DHT22;14521;48.148;-1.656;2022-07-26T04:37:02;25.10;76.60
26964;DHT22;14521;48.148;-1.656;2022-07-26T04:40:24;25.10;76.60
26964;DHT22;14521;48.148;-1.656;2022-07-26T04:43:50;25.10;76.60
26964;DHT22;14521;48.148;-1.656;2022-07-26T04:47:12;25.10;76.60
26964;DHT22;14521;48.148;-1.656;2022-07-26T04:50:35;25.10;76.60
26964;DHT22;14521;48.148;-1.656;2022-07-26T04:53:59;25.10;76.60
26964;DHT22;14521;48.148;-1.656;2022-07-26T04:57:21;25.10;77.40
26964;DHT22;14521;48.148;-1.656;2022-07-26T05:00:43;25.10;76.60
26964;DHT22;14521;48.148;-1.656;2022-07-26T05:04:25;25.10;76.60
26964;DHT22;14521;48.148;-1.656;2022-07-26T05:07:50;25.00;76.60
26964;DHT22;14521;48.148;-1.656;2022-07-26T05:11:13;25.10;76.60
26964;DHT22;14521;48.148;-1.656;2022-07-26T05:14:35;25.10;76.60
26964;DHT22;14521;48.148;-1.656;2022-07-26T05:18:05;25.10;76.60
26964;DHT22;14521;48.148;-1.656;2022-07-26T05:21:31;25.10;76.50
26964;DHT22;14521;48.148;-1.656;2022-07-26T05:24:53;25.10;76.50
26964;DHT22;14521;48.148;-1.656;2022-07-26T05:28:15;25.10;76.60
26964;DHT22;14521;48.148;-1.656;2022-07-26T05:31:38;25.10;76.70
26964;DHT22;14521;48.148;-1.656;2022-07-26T05:35:00;25.00;76.60
26964;DHT22;14521;48.148;-1.656;2022-07-26T05:38:22;25.10;76.60
26964;DHT22;14521;48.148;-1.656;2022-07-26T05:41:46;25.10;76.70
26964;DHT22;14521;48.148;-1.656;2022-07-26T05:45:09;25.10;76.80
26964;DHT22;14521;48.148;-1.656;2022-07-26T05:48:31;25.10;76.70
26964;DHT22;14521;48.148;-1.656;2022-07-26T05:51:55;25.10;76.90
26964;DHT22;14521;48.148;-1.656;2022-07-26T05:55:22;25.10;76.80
26964;DHT22;14521;48.148;-1.656;2022-07-26T05:58:44;25.10;76.90
26964;DHT22;14521;48.148;-1.656;2022-07-26T06:02:06;25.10;76.90
26964;DHT22;14521;48.148;-1.656;2022-07-26T06:05:29;25.10;76.90
26964;DHT22;14521;48.148;-1.656;2022-07-26T06:08:52;25.10;76.90
26964;DHT22;14521;48.148;-1.656;2022-07-26T06:12:14;25.10;76.90
26964;DHT22;14521;48.148;-1.656;2022-07-26T06:15:36;25.10;77.10
26964;DHT22;14521;48.148;-1.656;2022-07-26T06:18:59;25.10;77.10
26964;DHT22;14521;48.148;-1.656;2022-07-26T06:22:21;25.10;77.10
26964;DHT22;14521;48.148;-1.656;2022-07-26T06:25:43;25.10;77.10
26964;DHT22;14521;48.148;-1.656;2022-07-26T06:29:06;25.10;77.20
26964;DHT22;14521;48.148;-1.656;2022-07-26T06:32:28;25.10;77.10
26964;DHT22;14521;48.148;-1.656;2022-07-26T06:35:50;25.10;78.10
26964;DHT22;14521;48.148;-1.656;2022-07-26T06:39:12;25.10;77.30
26964;DHT22;14521;48.148;-1.656;2022-07-26T06:42:35;25.10;77.40
26964;DHT22;14521;48.148;-1.656;2022-07-26T06:45:58;25.10;77.40
26964;DHT22;14521;48.148;-1.656;2022-07-26T06:49:20;25.10;77.50
26964;DHT22;14521;48.148;-1.656;2022-07-26T06:52:44;25.10;77.60
26964;DHT22;14521;48.148;-1.656;2022-07-26T06:56:09;25.10;77.60
26964;DHT22;14521;48.148;-1.656;2022-07-26T06:59:31;25.10;77.60
26964;DHT22;14521;48.148;-1.656;2022-07-26T07:02:53;25.20;78.20
26964;DHT22;14521;48.148;-1.656;2022-07-26T07:06:16;25.30;77.80
26964;DHT22;14521;48.148;-1.656;2022-07-26T07:09:38;25.30;76.30
26964;DHT22;14521;48.148;-1.656;2022-07-26T07:13:01;25.30;77.30
26964;DHT22;14521;48.148;-1.656;2022-07-26T07:16:23;25.20;77.60
26964;DHT22;14521;48.148;-1.656;2022-07-26T07:19:46;25.10;78.20
26964;DHT22;14521;48.148;-1.656;2022-07-26T07:23:08;25.00;78.40
26964;DHT22;14521;48.148;-1.656;2022-07-26T07:26:30;25.10;77.90
26964;DHT22;14521;48.148;-1.656;2022-07-26T07:29:53;25.20;78.40
26964;DHT22;14521;48.148;-1.656;2022-07-26T07:33:17;25.30;78.40
26964;DHT22;14521;48.148;-1.656;2022-07-26T07:36:44;25.40;77.90
26964;DHT22;14521;48.148;-1.656;2022-07-26T07:40:08;25.50;77.70
26964;DHT22;14521;48.148;-1.656;2022-07-26T07:43:30;25.60;78.00
26964;DHT22;14521;48.148;-1.656;2022-07-26T07:46:53;25.60;77.70
26964;DHT22;14521;48.148;-1.656;2022-07-26T07:50:15;25.70;77.80
26964;DHT22;14521;48.148;-1.656;2022-07-26T07:53:39;25.80;78.50
26964;DHT22;14521;48.148;-1.656;2022-07-26T07:57:02;25.80;76.50
26964;DHT22;14521;48.148;-1.656;2022-07-26T08:00:24;25.80;75.30
26964;DHT22;14521;48.148;-1.656;2022-07-26T08:03:48;25.70;75.20
26964;DHT22;14521;48.148;-1.656;2022-07-26T08:07:11;25.70;74.90
26964;DHT22;14521;48.148;-1.656;2022-07-26T08:10:35;25.70;75.40
26964;DHT22;14521;48.148;-1.656;2022-07-26T08:14:02;25.80;76.20
26964;DHT22;14521;48.148;-1.656;2022-07-26T08:17:25;25.80;74.40
26964;DHT22;14521;48.148;-1.656;2022-07-26T08:20:50;25.80;75.30
26964;DHT22;14521;48.148;-1.656;2022-07-26T08:24:13;25.80;75.50
26964;DHT22;14521;48.148;-1.656;2022-07-26T08:27:36;25.90;76.10
26964;DHT22;14521;48.148;-1.656;2022-07-26T08:31:02;25.70;74.00
26964;DHT22;14521;48.148;-1.656;2022-07-26T08:34:24;25.40;73.60
26964;DHT22;14521;48.148;-1.656;2022-07-26T08:37:47;25.00;74.60
26964;DHT22;14521;48.148;-1.656;2022-07-26T08:41:09;24.80;74.80
26964;DHT22;14521;48.148;-1.656;2022-07-26T08:44:31;24.30;73.30
26964;DHT22;14521;48.148;-1.656;2022-07-26T08:47:55;24.40;73.90
26964;DHT22;14521;48.148;-1.656;2022-07-26T08:51:40;24.50;71.80
26964;DHT22;14521;48.148;-1.656;2022-07-26T08:55:04;24.50;71.20
26964;DHT22;14521;48.148;-1.656;2022-07-26T08:58:26;24.40;72.30
26964;DHT22;14521;48.148;-1.656;2022-07-26T09:01:57;24.30;72.90
26964;DHT22;14521;48.148;-1.656;2022-07-26T09:05:34;24.30;72.60
26964;DHT22;14521;48.148;-1.656;2022-07-26T09:09:09;24.40;72.40
26964;DHT22;14521;48.148;-1.656;2022-07-26T09:12:32;24.40;73.30
26964;DHT22;14521;48.148;-1.656;2022-07-26T09:16:10;24.40;71.90
26964;DHT22;14521;48.148;-1.656;2022-07-26T09:19:33;24.40;73.10
26964;DHT22;14521;48.148;-1.656;2022-07-26T09:22:57;24.40;71.30
26964;DHT22;14521;48.148;-1.656;2022-07-26T09:26:20;24.30;71.70
26964;DHT22;14521;48.148;-1.656;2022-07-26T09:29:53;24.30;71.90
26964;DHT22;14521;48.148;-1.656;2022-07-26T09:33:18;24.40;71.00
26964;DHT22;14521;48.148;-1.656;2022-07-26T09:36:51;24.50;71.10
26964;DHT22;14521;48.148;-1.656;2022-07-26T09:40:16;24.60;70.00
26964;DHT22;14521;48.148;-1.656;2022-07-26T09:43:38;24.70;69.60
26964;DHT22;14521;48.148;-1.656;2022-07-26T09:47:00;24.80;70.60
26964;DHT22;14521;48.148;-1.656;2022-07-26T09:50:31;24.90;69.10
26964;DHT22;14521;48.148;-1.656;2022-07-26T09:53:54;25.00;66.90
26964;DHT22;14521;48.148;-1.656;2022-07-26T09:57:17;24.90;67.90
26964;DHT22;14521;48.148;-1.656;2022-07-26T10:00:41;25.00;67.60
26964;DHT22;14521;48.148;-1.656;2022-07-26T10:04:03;25.10;68.00
26964;DHT22;14521;48.148;-1.656;2022-07-26T10:07:26;25.10;66.80
26964;DHT22;14521;48.148;-1.656;2022-07-26T10:10:51;25.10;67.30
26964;DHT22;14521;48.148;-1.656;2022-07-26T10:17:54;25.00;67.10
26964;DHT22;14521;48.148;-1.656;2022-07-26T10:21:27;25.00;68.20
26964;DHT22;14521;48.148;-1.656;2022-07-26T10:24:53;24.90;68.60
26964;DHT22;14521;48.148;-1.656;2022-07-26T10:28:27;24.70;68.80
26964;DHT22;14521;48.148;-1.656;2022-07-26T10:32:13;24.60;68.20
26964;DHT22;14521;48.148;-1.656;2022-07-26T10:35:37;24.80;69.40
26964;DHT22;14521;48.148;-1.656;2022-07-26T10:39:11;24.70;69.30
26964;DHT22;14521;48.148;-1.656;2022-07-26T10:42:44;24.80;70.00
26964;DHT22;14521;48.148;-1.656;2022-07-26T10:49:51;24.70;70.30
26964;DHT22;14521;48.148;-1.656;2022-07-26T10:53:22;24.70;70.40
26964;DHT22;14521;48.148;-1.656;2022-07-26T10:56:44;24.60;70.50
26964;DHT22;14521;48.148;-1.656;2022-07-26T11:00:09;24.80;69.80
26964;DHT22;14521;48.148;-1.656;2022-07-26T11:03:42;24.90;69.30
26964;DHT22;14521;48.148;-1.656;2022-07-26T11:07:05;24.90;69.30
26964;DHT22;14521;48.148;-1.656;2022-07-26T11:10:31;24.90;69.30
26964;DHT22;14521;48.148;-1.656;2022-07-26T11:14:06;24.90;69.40
26964;DHT22;14521;48.148;-1.656;2022-07-26T11:17:29;24.90;69.10
26964;DHT22;14521;48.148;-1.656;2022-07-26T11:20:54;25.00;68.70
26964;DHT22;14521;48.148;-1.656;2022-07-26T11:24:16;25.10;68.30
26964;DHT22;14521;48.148;-1.656;2022-07-26T11:28:00;25.00;67.40
26964;DHT22;14521;48.148;-1.656;2022-07-26T11:31:43;24.90;67.50
26964;DHT22;14521;48.148;-1.656;2022-07-26T11:35:19;24.80;67.60
26964;DHT22;14521;48.148;-1.656;2022-07-26T11:38:48;24.90;66.80
26964;DHT22;14521;48.148;-1.656;2022-07-26T11:42:12;24.90;67.50
26964;DHT22;14521;48.148;-1.656;2022-07-26T11:45:36;24.90;66.20
26964;DHT22;14521;48.148;-1.656;2022-07-26T11:48:58;24.90;67.10
26964;DHT22;14521;48.148;-1.656;2022-07-26T11:52:20;25.00;66.40
26964;DHT22;14521;48.148;-1.656;2022-07-26T11:55:49;25.00;65.80
26964;DHT22;14521;48.148;-1.656;2022-07-26T11:59:12;25.00;65.20
26964;DHT22;14521;48.148;-1.656;2022-07-26T12:02:34;25.00;65.40
26964;DHT22;14521;48.148;-1.656;2022-07-26T12:06:07;24.90;66.10
26964;DHT22;14521;48.148;-1.656;2022-07-26T12:09:41;24.90;65.70
26964;DHT22;14521;48.148;-1.656;2022-07-26T12:13:14;24.90;66.40
26964;DHT22;14521;48.148;-1.656;2022-07-26T12:16:45;25.10;65.60
26964;DHT22;14521;48.148;-1.656;2022-07-26T12:20:11;25.20;65.10
26964;DHT22;14521;48.148;-1.656;2022-07-26T12:23:14;25.30;68.00
26964;DHT22;14521;48.148;-1.656;2022-07-26T12:29:47;25.50;66.30
26964;DHT22;14521;48.148;-1.656;2022-07-26T12:33:09;25.50;66.40
26964;DHT22;14521;48.148;-1.656;2022-07-26T12:36:32;25.50;66.10
26964;DHT22;14521;48.148;-1.656;2022-07-26T12:43:26;25.60;66.40
26964;DHT22;14521;48.148;-1.656;2022-07-26T12:46:59;25.50;64.40
26964;DHT22;14521;48.148;-1.656;2022-07-26T12:50:24;25.50;64.30
26964;DHT22;14521;48.148;-1.656;2022-07-26T12:53:47;25.60;64.00
26964;DHT22;14521;48.148;-1.656;2022-07-26T12:57:09;25.60;63.40
26964;DHT22;14521;48.148;-1.656;2022-07-26T13:00:31;25.60;64.70
26964;DHT22;14521;48.148;-1.656;2022-07-26T13:03:56;25.70;66.70
26964;DHT22;14521;48.148;-1.656;2022-07-26T13:07:19;25.80;67.80
26964;DHT22;14521;48.148;-1.656;2022-07-26T13:10:41;25.80;68.00
26964;DHT22;14521;48.148;-1.656;2022-07-26T13:14:03;25.80;66.70
26964;DHT22;14521;48.148;-1.656;2022-07-26T13:17:26;25.60;64.90
26964;DHT22;14521;48.148;-1.656;2022-07-26T13:20:48;25.40;63.80
26964;DHT22;14521;48.148;-1.656;2022-07-26T13:24:10;25.30;64.10
26964;DHT22;14521;48.148;-1.656;2022-07-26T13:27:34;25.30;64.80
26964;DHT22;14521;48.148;-1.656;2022-07-26T13:31:00;25.40;64.40
26964;DHT22;14521;48.148;-1.656;2022-07-26T13:34:22;25.50;63.40
26964;DHT22;14521;48.148;-1.656;2022-07-26T13:37:44;25.50;62.70
26964;DHT22;14521;48.148;-1.656;2022-07-26T13:41:08;25.60;63.40
26964;DHT22;14521;48.148;-1.656;2022-07-26T13:44:30;25.60;61.60
26964;DHT22;14521;48.148;-1.656;2022-07-26T13:47:53;25.60;61.60
26964;DHT22;14521;48.148;-1.656;2022-07-26T13:51:15;25.50;61.40
26964;DHT22;14521;48.148;-1.656;2022-07-26T13:54:39;25.40;61.70
26964;DHT22;14521;48.148;-1.656;2022-07-26T13:58:01;25.40;62.10
26964;DHT22;14521;48.148;-1.656;2022-07-26T14:01:31;25.30;61.70
26964;DHT22;14521;48.148;-1.656;2022-07-26T14:05:06;25.40;62.70
26964;DHT22;14521;48.148;-1.656;2022-07-26T14:08:28;25.40;62.20
26964;DHT22;14521;48.148;-1.656;2022-07-26T14:11:50;25.50;62.90
26964;DHT22;14521;48.148;-1.656;2022-07-26T14:15:13;25.50;61.90
26964;DHT22;14521;48.148;-1.656;2022-07-26T14:18:42;25.50;61.90
26964;DHT22;14521;48.148;-1.656;2022-07-26T14:22:05;25.50;62.40
26964;DHT22;14521;48.148;-1.656;2022-07-26T14:25:29;25.50;62.60
26964;DHT22;14521;48.148;-1.656;2022-07-26T14:28:54;25.60;63.10
26964;DHT22;14521;48.148;-1.656;2022-07-26T14:32:17;25.70;63.70
26964;DHT22;14521;48.148;-1.656;2022-07-26T14:35:43;25.60;62.40
26964;DHT22;14521;48.148;-1.656;2022-07-26T14:39:05;25.70;62.70
26964;DHT22;14521;48.148;-1.656;2022-07-26T14:42:28;25.70;73.20
26964;DHT22;14521;48.148;-1.656;2022-07-26T14:45:50;25.70;71.60
26964;DHT22;14521;48.148;-1.656;2022-07-26T14:49:12;25.60;67.90
26964;DHT22;14521;48.148;-1.656;2022-07-26T14:52:40;25.60;65.80
26964;DHT22;14521;48.148;-1.656;2022-07-26T14:56:02;25.60;66.50
26964;DHT22;14521;48.148;-1.656;2022-07-26T14:59:24;25.60;66.10
26964;DHT22;14521;48.148;-1.656;2022-07-26T15:02:47;25.60;66.50
26964;DHT22;14521;48.148;-1.656;2022-07-26T15:06:10;25.70;66.00
26964;DHT22;14521;48.148;-1.656;2022-07-26T15:09:32;25.50;64.00
26964;DHT22;14521;48.148;-1.656;2022-07-26T15:12:56;25.60;64.30
26964;DHT22;14521;48.148;-1.656;2022-07-26T15:16:18;25.50;63.90
26964;DHT22;14521;48.148;-1.656;2022-07-26T15:19:41;25.40;64.10
26964;DHT22;14521;48.148;-1.656;2022-07-26T15:23:05;25.40;64.30
26964;DHT22;14521;48.148;-1.656;2022-07-26T15:26:29;25.50;65.30
26964;DHT22;14521;48.148;-1.656;2022-07-26T15:29:51;25.50;63.80
26964;DHT22;14521;48.148;-1.656;2022-07-26T15:33:14;25.50;64.30
26964;DHT22;14521;48.148;-1.656;2022-07-26T15:36:36;25.50;63.20
26964;DHT22;14521;48.148;-1.656;2022-07-26T15:39:59;25.50;63.20
26964;DHT22;14521;48.148;-1.656;2022-07-26T15:43:23;25.50;62.90
26964;DHT22;14521;48.148;-1.656;2022-07-26T15:47:06;25.50;62.40
26964;DHT22;14521;48.148;-1.656;2022-07-26T15:50:30;25.40;62.80
26964;DHT22;14521;48.148;-1.656;2022-07-26T15:53:53;25.50;62.40
26964;DHT22;14521;48.148;-1.656;2022-07-26T15:57:15;25.50;62.60
26964;DHT22;14521;48.148;-1.656;2022-07-26T16:00:38;25.50;62.10
26964;DHT22;14521;48.148;-1.656;2022-07-26T16:04:00;25.50;62.10
26964;DHT22;14521;48.148;-1.656;2022-07-26T16:07:23;25.50;62.10
26964;DHT22;14521;48.148;-1.656;2022-07-26T16:10:45;25.50;62.40
26964;DHT22;14521;48.148;-1.656;2022-07-26T16:14:08;25.50;61.90
26964;DHT22;14521;48.148;-1.656;2022-07-26T16:17:30;25.50;68.30
26964;DHT22;14521;48.148;-1.656;2022-07-26T16:20:52;25.60;65.50
26964;DHT22;14521;48.148;-1.656;2022-07-26T16:24:14;25.50;64.50
26964;DHT22;14521;48.148;-1.656;2022-07-26T16:27:37;25.60;64.20
26964;DHT22;14521;48.148;-1.656;2022-07-26T16:30:59;25.60;62.20
26964;DHT22;14521;48.148;-1.656;2022-07-26T16:34:22;25.60;70.30
26964;DHT22;14521;48.148;-1.656;2022-07-26T16:37:44;25.60;64.20
26964;DHT22;14521;48.148;-1.656;2022-07-26T16:41:06;25.60;64.40
26964;DHT22;14521;48.148;-1.656;2022-07-26T16:44:29;25.50;63.30
26964;DHT22;14521;48.148;-1.656;2022-07-26T16:47:51;25.50;61.60
26964;DHT22;14521;48.148;-1.656;2022-07-26T16:51:20;25.40;61.50
26964;DHT22;14521;48.148;-1.656;2022-07-26T16:54:43;25.40;61.20
26964;DHT22;14521;48.148;-1.656;2022-07-26T16:58:05;25.30;60.80
26964;DHT22;14521;48.148;-1.656;2022-07-26T17:01:27;25.30;61.00
26964;DHT22;14521;48.148;-1.656;2022-07-26T17:04:50;25.30;60.20
26964;DHT22;14521;48.148;-1.656;2022-07-26T17:08:13;25.30;60.20
26964;DHT22;14521;48.148;-1.656;2022-07-26T17:11:35;25.30;60.70
26964;DHT22;14521;48.148;-1.656;2022-07-26T17:14:58;25.40;61.90
26964;DHT22;14521;48.148;-1.656;2022-07-26T17:18:20;25.50;61.40
26964;DHT22;14521;48.148;-1.656;2022-07-26T17:21:42;25.50;61.20
26964;DHT22;14521;48.148;-1.656;2022-07-26T17:25:05;25.40;60.70
26964;DHT22;14521;48.148;-1.656;2022-07-26T17:28:28;25.40;61.00
26964;DHT22;14521;48.148;-1.656;2022-07-26T17:31:50;25.40;61.20
26964;DHT22;14521;48.148;-1.656;2022-07-26T17:35:14;25.40;61.30
26964;DHT22;14521;48.148;-1.656;2022-07-26T17:38:36;25.30;61.80
26964;DHT22;14521;48.148;-1.656;2022-07-26T17:42:01;25.30;62.00
26964;DHT22;14521;48.148;-1.656;2022-07-26T17:45:23;25.30;61.40
26964;DHT22;14521;48.148;-1.656;2022-07-26T17:48:46;25.30;62.50
26964;DHT22;14521;48.148;-1.656;2022-07-26T17:52:08;25.40;62.00
26964;DHT22;14521;48.148;-1.656;2022-07-26T17:55:31;25.40;62.80
26964;DHT22;14521;48.148;-1.656;2022-07-26T17:58:53;25.40;63.10
26964;DHT22;14521;48.148;-1.656;2022-07-26T18:02:15;25.40;64.50
26964;DHT22;14521;48.148;-1.656;2022-07-26T18:05:38;25.40;63.50
26964;DHT22;14521;48.148;-1.656;2022-07-26T18:09:02;25.30;63.90
26964;DHT22;14521;48.148;-1.656;2022-07-26T18:12:27;25.30;63.50
26964;DHT22;14521;48.148;-1.656;2022-07-26T18:15:51;25.30;63.40
26964;DHT22;14521;48.148;-1.656;2022-07-26T18:19:14;25.30;62.90
26964;DHT22;14521;48.148;-1.656;2022-07-26T18:22:37;25.30;63.00
26964;DHT22;14521;48.148;-1.656;2022-07-26T18:25:59;25.30;63.30
26964;DHT22;14521;48.148;-1.656;2022-07-26T18:29:21;25.20;62.90
26964;DHT22;14521;48.148;-1.656;2022-07-26T18:32:44;25.20;62.90
26964;DHT22;14521;48.148;-1.656;2022-07-26T18:36:06;25.20;62.80
26964;DHT22;14521;48.148;-1.656;2022-07-26T18:39:29;25.10;63.10
26964;DHT22;14521;48.148;-1.656;2022-07-26T18:42:54;25.10;63.40
26964;DHT22;14521;48.148;-1.656;2022-07-26T18:46:16;25.00;63.10
26964;DHT22;14521;48.148;-1.656;2022-07-26T18:49:38;25.00;62.90
26964;DHT22;14521;48.148;-1.656;2022-07-26T18:53:01;25.00;62.30
26964;DHT22;14521;48.148;-1.656;2022-07-26T18:56:23;24.70;62.20
26964;DHT22;14521;48.148;-1.656;2022-07-26T18:59:46;24.50;63.00
26964;DHT22;14521;48.148;-1.656;2022-07-26T19:03:08;24.30;63.90
26964;DHT22;14521;48.148;-1.656;2022-07-26T19:06:31;24.20;64.00
26964;DHT22;14521;48.148;-1.656;2022-07-26T19:09:54;24.20;63.70
26964;DHT22;14521;48.148;-1.656;2022-07-26T19:13:19;24.10;63.20
26964;DHT22;14521;48.148;-1.656;2022-07-26T19:16:42;24.20;62.80
26964;DHT22;14521;48.148;-1.656;2022-07-26T19:20:06;24.00;63.20
26964;DHT22;14521;48.148;-1.656;2022-07-26T19:23:29;24.00;63.30
26964;DHT22;14521;48.148;-1.656;2022-07-26T19:26:51;24.00;63.20
26964;DHT22;14521;48.148;-1.656;2022-07-26T19:30:13;24.20;63.40
26964;DHT22;14521;48.148;-1.656;2022-07-26T19:33:35;24.10;63.20
26964;DHT22;14521;48.148;-1.656;2022-07-26T19:36:58;24.10;63.30
26964;DHT22;14521;48.148;-1.656;2022-07-26T19:40:21;24.00;63.50
26964;DHT22;14521;48.148;-1.656;2022-07-26T19:43:43;23.70;64.30
26964;DHT22;14521;48.148;-1.656;2022-07-26T19:47:08;23.60;65.10
26964;DHT22;14521;48.148;-1.656;2022-07-26T19:50:30;23.40;65.70
26964;DHT22;14521;48.148;-1.656;2022-07-26T19:53:53;23.40;65.90
26964;DHT22;14521;48.148;-1.656;2022-07-26T19:57:15;23.40;66.20
26964;DHT22;14521;48.148;-1.656;2022-07-26T20:00:39;23.30;66.70
26964;DHT22;14521;48.148;-1.656;2022-07-26T20:04:01;23.00;67.30
26964;DHT22;14521;48.148;-1.656;2022-07-26T20:07:24;23.00;67.80
26964;DHT22;14521;48.148;-1.656;2022-07-26T20:10:46;22.90;68.10
26964;DHT22;14521;48.148;-1.656;2022-07-26T20:14:09;22.90;69.40
26964;DHT22;14521;48.148;-1.656;2022-07-26T20:17:31;22.90;68.80
26964;DHT22;14521;48.148;-1.656;2022-07-26T20:20:56;23.30;68.90
26964;DHT22;14521;48.148;-1.656;2022-07-26T20:24:18;23.80;67.60
26964;DHT22;14521;48.148;-1.656;2022-07-26T20:27:41;23.90;67.10
26964;DHT22;14521;48.148;-1.656;2022-07-26T20:31:03;23.90;67.00
26964;DHT22;14521;48.148;-1.656;2022-07-26T20:34:26;24.00;67.10
26964;DHT22;14521;48.148;-1.656;2022-07-26T20:37:48;24.10;67.30
26964;DHT22;14521;48.148;-1.656;2022-07-26T20:41:10;24.10;67.50
26964;DHT22;14521;48.148;-1.656;2022-07-26T20:44:33;24.10;67.90
26964;DHT22;14521;48.148;-1.656;2022-07-26T20:47:56;24.20;66.80
26964;DHT22;14521;48.148;-1.656;2022-07-26T20:51:18;24.20;67.50
26964;DHT22;14521;48.148;-1.656;2022-07-26T20:54:41;24.10;67.60
26964;DHT22;14521;48.148;-1.656;2022-07-26T20:58:03;24.10;67.80
26964;DHT22;14521;48.148;-1.656;2022-07-26T21:01:25;24.00;68.00
26964;DHT22;14521;48.148;-1.656;2022-07-26T21:04:48;24.00;68.30
26964;DHT22;14521;48.148;-1.656;2022-07-26T21:08:10;23.90;68.40
26964;DHT22;14521;48.148;-1.656;2022-07-26T21:11:33;23.90;68.50
26964;DHT22;14521;48.148;-1.656;2022-07-26T21:14:55;23.90;68.40
26964;DHT22;14521;48.148;-1.656;2022-07-26T21:18:19;23.90;68.60
26964;DHT22;14521;48.148;-1.656;2022-07-26T21:21:41;23.90;68.70